Time;durP1;ratioP1;P1;durP2;ratioP2;P2;SDS_P1;SDS_P2;PMS_P1;PMS_P2;Temp;Humidity;BMP_temperature;BMP_pressure;BME280_temperature;BME280_humidity;BME280_pressure;Samples;Min_cycle;Max_cycle;Signal;HPM_P1;HPM_P2
2022/04/04 00:00:09;;;;;;;9.35;7.07;;;6.40;78.60;;;;;;5089695;28;20039;-81
2022/04/04 00:02:35;;;;;;;9.77;7.55;;;6.50;78.30;;;;;;5091351;28;20024;-81
2022/04/04 00:05:01;;;;;;;9.23;7.28;;;6.40;78.30;;;;;;5088352;28;20440;-80
2022/04/04 00:07:27;;;;;;;9.73;7.30;;;6.40;78.40;;;;;;5088664;28;20439;-80
2022/04/04 00:09:53;;;;;;;8.77;7.45;;;6.30;78.70;;;;;;5088694;28;20103;-79
2022/04/04 00:12:20;;;;;;;9.10;6.88;;;6.30;78.60;;;;;;5088365;28;20111;-80
2022/04/04 00:14:47;;;;;;;10.90;7.63;;;6.40;78.60;;;;;;5091448;28;20483;-80
2022/04/04 00:17:13;;;;;;;10.55;7.65;;;6.40;78.70;;;;;;5089101;28;20392;-80
2022/04/04 00:19:39;;;;;;;9.13;7.35;;;6.30;78.50;;;;;;5088188;28;20032;-80
2022/04/04 00:22:05;;;;;;;10.25;7.55;;;6.30;78.60;;;;;;5088163;28;20032;-79
2022/04/04 00:24:31;;;;;;;10.02;7.22;;;6.20;79.00;;;;;;5087590;28;20024;-80
2022/04/04 00:26:57;;;;;;;11.52;7.85;;;6.30;79.10;;;;;;5090485;28;20020;-80
2022/04/04 00:29:24;;;;;;;9.30;7.30;;;6.30;79.30;;;;;;5089997;28;20024;-80
2022/04/04 00:31:50;;;;;;;10.13;7.72;;;6.20;79.30;;;;;;5087901;28;20043;-79
2022/04/04 00:34:16;;;;;;;10.52;7.43;;;6.20;79.50;;;;;;5088010;28;20031;-80
2022/04/04 00:36:43;;;;;;;9.98;7.15;;;6.10;79.70;;;;;;5087901;28;20032;-79
2022/04/04 00:39:10;;;;;;;10.40;7.68;;;6.10;80.10;;;;;;5088766;28;20035;-80
2022/04/04 00:41:36;;;;;;;9.65;7.70;;;6.10;80.40;;;;;;5091040;28;20032;-80
2022/04/04 00:44:02;;;;;;;11.07;7.82;;;6.00;80.40;;;;;;5088052;28;20443;-80
2022/04/04 00:46:28;;;;;;;9.82;7.32;;;6.00;80.70;;;;;;5088436;28;20059;-80
2022/04/04 00:48:53;;;;;;;10.40;7.55;;;6.00;80.50;;;;;;5089358;28;20063;-80
2022/04/04 00:51:19;;;;;;;10.07;7.65;;;6.00;80.90;;;;;;5087758;28;20025;-80
2022/04/04 00:53:45;;;;;;;11.48;8.13;;;6.00;81.00;;;;;;5090620;28;20039;-80
2022/04/04 00:56:12;;;;;;;9.85;8.00;;;6.00;80.90;;;;;;5088297;28;20503;-81
2022/04/04 00:58:38;;;;;;;10.65;7.55;;;5.90;80.60;;;;;;5088291;28;20043;-80
2022/04/04 01:01:05;;;;;;;10.15;8.23;;;6.00;80.80;;;;;;5088015;28;20020;-80
2022/04/04 01:03:31;;;;;;;9.48;7.05;;;5.90;81.10;;;;;;5087840;28;20036;-81
2022/04/04 01:05:59;;;;;;;11.13;8.30;;;5.90;80.70;;;;;;5090003;28;20024;-80
2022/04/04 01:08:25;;;;;;;10.50;7.85;;;5.80;81.30;;;;;;5089338;28;20024;-80
2022/04/04 01:10:51;;;;;;;10.18;7.80;;;5.80;81.00;;;;;;5087615;28;20028;-80
2022/04/04 01:13:17;;;;;;;10.02;7.65;;;5.80;81.50;;;;;;5088024;28;20044;-81
2022/04/04 01:15:43;;;;;;;8.57;6.95;;;5.70;81.60;;;;;;5087748;28;20031;-81
2022/04/04 01:18:09;;;;;;;11.23;8.35;;;5.70;81.70;;;;;;5088283;28;20427;-80
2022/04/04 01:20:37;;;;;;;9.88;7.35;;;5.70;81.80;;;;;;5090954;28;20024;-81
2022/04/04 01:23:05;;;;;;;10.10;7.95;;;5.70;82.30;;;;;;5090045;28;20396;-80
2022/04/04 01:25:35;;;;;;;12.10;8.20;;;5.70;81.80;;;;;;5091116;28;20107;-80
2022/04/04 01:28:01;;;;;;;12.52;8.80;;;5.70;81.60;;;;;;5092610;28;20030;-80
2022/04/04 01:30:27;;;;;;;11.55;8.38;;;5.70;81.80;;;;;;5091230;28;20107;-80
2022/04/04 01:32:54;;;;;;;12.95;8.95;;;5.70;81.90;;;;;;5093631;28;20554;-81
2022/04/04 01:35:21;;;;;;;11.00;8.48;;;5.60;82.20;;;;;;5092021;28;20077;-80
2022/04/04 01:37:48;;;;;;;12.52;8.88;;;5.60;82.30;;;;;;5090442;28;20048;-80
2022/04/04 01:40:15;;;;;;;11.82;8.85;;;5.70;82.10;;;;;;5090891;28;20103;-80
2022/04/04 01:42:41;;;;;;;12.73;8.43;;;5.60;82.00;;;;;;5090890;28;20522;-80
2022/04/04 01:45:09;;;;;;;11.65;9.30;;;5.60;82.50;;;;;;5073983;28;20021;-80
2022/04/04 01:47:35;;;;;;;13.40;9.07;;;5.60;82.30;;;;;;5094044;28;20032;-81
2022/04/04 01:50:01;;;;;;;13.45;8.77;;;5.60;82.00;;;;;;5090469;28;20078;-81
2022/04/04 01:52:27;;;;;;;13.70;9.40;;;5.70;81.90;;;;;;5090339;28;20196;-80
2022/04/04 01:54:53;;;;;;;12.63;8.63;;;5.60;82.10;;;;;;5090535;28;20084;-81
2022/04/04 01:57:19;;;;;;;12.00;8.73;;;5.50;82.20;;;;;;5090909;28;20044;-81
2022/04/04 01:59:44;;;;;;;14.73;10.13;;;5.50;82.00;;;;;;5093919;28;20020;-80
2022/04/04 02:02:10;;;;;;;15.05;9.73;;;5.50;82.10;;;;;;5090911;28;20047;-80
2022/04/04 02:04:36;;;;;;;14.52;9.98;;;5.50;82.00;;;;;;5090342;28;20020;-80
2022/04/04 02:07:05;;;;;;;12.35;9.38;;;5.60;81.50;;;;;;5091447;28;20118;-80
2022/04/04 02:09:32;;;;;;;12.80;9.18;;;5.70;81.00;;;;;;5090887;28;20029;-81
2022/04/04 02:11:58;;;;;;;11.45;8.25;;;5.60;80.50;;;;;;5092629;28;20373;-81
2022/04/04 02:14:23;;;;;;;12.77;9.30;;;5.60;81.10;;;;;;5091624;28;20020;-80
2022/04/04 02:16:49;;;;;;;11.82;9.30;;;5.60;81.30;;;;;;5090582;28;20051;-80
2022/04/04 02:19:17;;;;;;;10.68;8.35;;;5.50;82.20;;;;;;5090073;28;20016;-80
2022/04/04 02:21:44;;;;;;;11.65;8.27;;;5.50;82.10;;;;;;5071889;28;20396;-81
2022/04/04 02:24:10;;;;;;;12.30;8.43;;;5.50;82.80;;;;;;5090711;28;20640;-81
2022/04/04 02:26:35;;;;;;;10.68;8.13;;;5.50;82.80;;;;;;5093306;28;20040;-80
2022/04/04 02:29:01;;;;;;;13.25;8.70;;;5.40;82.80;;;;;;5089934;28;20091;-80
2022/04/04 02:31:27;;;;;;;12.38;8.93;;;5.50;82.90;;;;;;5089975;28;20523;-81
2022/04/04 02:33:53;;;;;;;13.82;8.98;;;5.40;83.10;;;;;;5089461;28;20028;-81
2022/04/04 02:36:20;;;;;;;12.07;8.75;;;5.40;83.20;;;;;;5089110;28;20406;-80
2022/04/04 02:38:46;;;;;;;11.65;8.40;;;5.40;82.90;;;;;;5092785;28;20492;-82
2022/04/04 02:41:12;;;;;;;11.98;8.48;;;5.40;83.30;;;;;;5090512;28;20024;-81
2022/04/04 02:43:39;;;;;;;11.88;8.60;;;5.40;83.50;;;;;;5089942;28;20445;-81
2022/04/04 02:46:05;;;;;;;11.57;8.27;;;5.30;83.40;;;;;;5090915;28;20081;-81
2022/04/04 02:48:32;;;;;;;11.38;8.63;;;5.40;83.60;;;;;;5089704;28;20013;-80
2022/04/04 02:50:58;;;;;;;12.25;8.48;;;5.30;83.60;;;;;;5091466;28;20519;-81
2022/04/04 02:53:23;;;;;;;12.55;8.77;;;5.30;83.40;;;;;;5090866;28;20103;-81
2022/04/04 02:58:34;;;;;;;;;;;5.40;83.30;;;;;;5089869;28;20073;-81
2022/04/04 03:00:59;;;;;;;10.65;7.85;;;5.40;83.10;;;;;;5089317;28;19904;-81
2022/04/04 03:03:25;;;;;;;10.60;7.80;;;5.40;82.80;;;;;;5089074;28;20029;-81
2022/04/04 03:05:51;;;;;;;10.57;8.27;;;5.30;83.00;;;;;;5091616;28;20073;-81
2022/04/04 03:08:17;;;;;;;10.60;8.63;;;5.30;83.30;;;;;;5090194;28;20035;-82
2022/04/04 03:10:43;;;;;;;12.75;8.65;;;5.30;83.80;;;;;;5089423;28;20035;-81
2022/04/04 03:13:09;;;;;;;11.48;8.57;;;5.30;83.80;;;;;;5089065;28;20020;-81
2022/04/04 03:15:35;;;;;;;10.57;8.07;;;5.20;84.30;;;;;;5088867;28;20023;-81
2022/04/04 03:18:03;;;;;;;11.43;8.63;;;5.30;84.50;;;;;;5090965;28;20039;-81
2022/04/04 03:20:30;;;;;;;12.13;8.70;;;5.30;84.60;;;;;;5090941;28;20024;-81
2022/04/04 03:22:57;;;;;;;10.48;7.75;;;5.30;84.00;;;;;;5088880;28;20094;-81
2022/04/04 03:25:23;;;;;;;10.27;7.75;;;5.20;84.30;;;;;;5088758;28;20016;-81
2022/04/04 03:27:50;;;;;;;11.95;8.52;;;5.20;84.30;;;;;;5089044;28;20028;-82
2022/04/04 03:30:18;;;;;;;9.70;7.72;;;5.20;84.40;;;;;;5089118;28;20016;-82
2022/04/04 03:32:51;;;;;;;11.18;8.73;;;5.20;84.70;;;;;;5092457;28;20127;-82
2022/04/04 03:35:18;;;;;;;12.52;8.60;;;5.10;85.30;;;;;;5091192;28;20111;-81
2022/04/04 03:37:47;;;;;;;13.35;9.30;;;5.10;85.30;;;;;;5104255;28;20464;-81
2022/04/04 03:40:14;;;;;;;12.15;9.25;;;5.20;85.80;;;;;;5088799;28;20020;-81
2022/04/04 03:42:42;;;;;;;11.95;9.25;;;5.10;86.60;;;;;;5088505;28;20046;-82
2022/04/04 03:45:08;;;;;;;13.77;10.23;;;5.00;86.50;;;;;;5088865;28;20519;-82
2022/04/04 03:47:34;;;;;;;14.48;10.27;;;5.00;86.60;;;;;;5090924;28;20027;-82
2022/04/04 03:50:00;;;;;;;12.02;10.05;;;5.10;87.10;;;;;;5088374;28;20039;-81
2022/04/04 03:52:26;;;;;;;11.93;9.93;;;4.90;86.70;;;;;;5088347;28;20044;-81
2022/04/04 03:54:52;;;;;;;12.98;9.43;;;4.90;87.60;;;;;;5088813;28;20035;-82
2022/04/04 03:57:18;;;;;;;12.75;9.57;;;4.90;87.40;;;;;;5088578;28;20033;-82
2022/04/04 03:59:44;;;;;;;14.00;10.00;;;4.80;87.60;;;;;;5091460;28;20025;-82
2022/04/04 04:02:11;;;;;;;17.00;11.10;;;4.90;87.40;;;;;;5088281;28;20081;-82
2022/04/04 04:04:37;;;;;;;14.95;11.15;;;4.90;87.80;;;;;;5089736;28;20496;-81
2022/04/04 04:07:04;;;;;;;18.40;13.45;;;4.90;87.60;;;;;;5088891;28;20117;-81
2022/04/04 04:09:30;;;;;;;22.50;13.30;;;4.90;87.60;;;;;;5088489;28;20031;-81
2022/04/04 04:11:56;;;;;;;23.45;14.10;;;4.80;88.00;;;;;;5090730;28;20028;-81
2022/04/04 04:14:24;;;;;;;22.10;13.82;;;4.90;88.30;;;;;;5089239;28;20032;-81
2022/04/04 04:16:50;;;;;;;23.85;14.35;;;4.80;88.10;;;;;;5087867;28;20028;-81
2022/04/04 04:22:00;;;;;;;19.33;13.25;;;4.90;87.70;;;;;;5088404;28;20043;-80
2022/04/04 04:24:26;;;;;;;20.50;13.52;;;4.80;87.50;;;;;;5070276;28;20032;-81
2022/04/04 04:26:53;;;;;;;20.33;13.80;;;4.70;88.60;;;;;;5090972;28;20480;-81
2022/04/04 04:29:19;;;;;;;18.77;12.40;;;4.70;89.90;;;;;;5088993;28;20101;-81
2022/04/04 04:31:45;;;;;;;16.13;11.18;;;4.70;89.50;;;;;;5087865;28;20071;-81
2022/04/04 04:34:10;;;;;;;16.15;12.18;;;4.70;89.10;;;;;;5088351;28;20086;-82
2022/04/04 04:36:39;;;;;;;14.80;10.00;;;4.70;89.30;;;;;;5088073;28;20043;-82
2022/04/04 04:39:06;;;;;;;15.50;10.82;;;4.70;89.40;;;;;;5089374;28;20028;-81
2022/04/04 04:41:32;;;;;;;16.77;10.95;;;4.70;89.70;;;;;;5090372;28;20558;-81
2022/04/04 04:43:58;;;;;;;14.60;9.85;;;4.60;89.60;;;;;;5087879;28;20028;-81
2022/04/04 04:46:23;;;;;;;13.95;10.27;;;4.70;89.80;;;;;;5087704;28;20035;-81
2022/04/04 04:48:49;;;;;;;13.85;9.65;;;4.60;89.20;;;;;;5088473;28;20079;-81
2022/04/04 04:51:15;;;;;;;16.33;9.90;;;4.60;89.70;;;;;;5088074;28;20114;-82
2022/04/04 04:53:41;;;;;;;14.95;10.20;;;4.70;89.30;;;;;;5091508;28;20488;-81
2022/04/04 04:56:07;;;;;;;14.25;9.68;;;4.70;88.70;;;;;;5088963;28;20052;-82
2022/04/04 04:58:32;;;;;;;13.38;9.65;;;4.60;89.80;;;;;;5091689;28;20038;-84
2022/04/04 05:00:58;;;;;;;13.30;8.88;;;4.60;89.20;;;;;;5091471;28;20028;-77
2022/04/04 05:03:24;;;;;;;13.90;8.98;;;4.60;89.80;;;;;;5091753;28;20024;-87
2022/04/04 05:05:50;;;;;;;12.20;8.55;;;4.50;89.90;;;;;;5094773;28;20537;-78
2022/04/04 05:08:16;;;;;;;12.57;8.95;;;4.50;89.30;;;;;;5094002;28;20028;-85
2022/04/04 05:10:42;;;;;;;13.05;8.60;;;4.60;88.80;;;;;;5091792;28;20080;-88
2022/04/04 05:13:08;;;;;;;11.95;8.57;;;4.70;88.90;;;;;;5091710;28;20027;-88
2022/04/04 05:15:33;;;;;;;12.85;9.05;;;4.70;88.90;;;;;;5091550;28;20548;-86
2022/04/04 05:17:59;;;;;;;12.85;9.23;;;4.50;89.50;;;;;;5075317;28;20040;-86
2022/04/04 05:20:25;;;;;;;15.07;9.38;;;4.50;89.80;;;;;;5092919;28;20023;-86
2022/04/04 05:22:51;;;;;;;12.63;9.27;;;4.50;90.00;;;;;;5091324;28;20432;-86
2022/04/04 05:25:17;;;;;;;12.68;9.48;;;4.50;89.60;;;;;;5091263;28;20024;-87
2022/04/04 05:27:43;;;;;;;12.90;8.82;;;4.60;89.90;;;;;;5091223;28;20024;-86
2022/04/04 05:30:09;;;;;;;14.63;10.27;;;4.50;89.50;;;;;;5092052;28;20021;-87
2022/04/04 05:32:36;;;;;;;13.07;9.65;;;4.60;89.10;;;;;;5094069;28;20032;-88
2022/04/04 05:35:08;;;;;;;13.18;9.00;;;4.50;89.70;;;;;;5091423;28;20081;-86
2022/04/04 05:37:34;;;;;;;10.95;8.98;;;4.50;89.60;;;;;;5091013;28;20119;-84
2022/04/04 05:40:01;;;;;;;17.52;8.68;;;4.50;89.30;;;;;;5091117;28;20396;-82
2022/04/04 05:42:28;;;;;;;13.32;9.65;;;4.50;89.50;;;;;;5091166;28;20197;-81
2022/04/04 05:44:54;;;;;;;13.35;9.57;;;4.60;89.00;;;;;;5092549;28;20423;-82
2022/04/04 05:47:20;;;;;;;13.60;9.10;;;4.50;88.10;;;;;;5092320;28;20119;-82
2022/04/04 05:49:48;;;;;;;13.32;9.55;;;4.50;87.90;;;;;;5090821;28;20035;-82
2022/04/04 05:52:15;;;;;;;13.75;9.77;;;4.50;88.20;;;;;;5090533;28;20118;-82
2022/04/04 05:54:54;;;;;;;19.30;9.68;;;4.60;88.40;;;;;;5090748;28;20028;-82
2022/04/04 05:57:22;;;;;;;16.17;10.05;;;4.60;88.10;;;;;;5075684;28;20082;-82
2022/04/04 05:59:47;;;;;;;17.13;10.02;;;4.60;88.10;;;;;;5093297;28;20404;-82
2022/04/04 06:02:13;;;;;;;15.02;10.30;;;4.50;88.70;;;;;;5092939;28;20032;-74
2022/04/04 06:04:39;;;;;;;14.68;10.43;;;4.60;88.40;;;;;;5090337;28;20028;-74
2022/04/04 06:07:05;;;;;;;13.77;10.23;;;4.80;88.30;;;;;;5090094;28;20039;-74
2022/04/04 06:09:30;;;;;;;22.17;10.15;;;4.80;88.40;;;;;;5089627;28;20393;-74
2022/04/04 06:11:56;;;;;;;17.17;9.88;;;4.90;88.00;;;;;;5091563;28;20027;-73
2022/04/04 06:14:22;;;;;;;13.80;10.45;;;5.00;87.10;;;;;;5090742;28;20107;-73
2022/04/04 06:16:47;;;;;;;13.13;9.55;;;5.10;86.80;;;;;;5090751;28;20143;-73
2022/04/04 06:19:13;;;;;;;14.55;10.15;;;5.10;86.40;;;;;;5090154;28;20050;-73
2022/04/04 06:21:39;;;;;;;14.00;10.15;;;5.20;86.70;;;;;;5090545;28;20016;-73
2022/04/04 06:24:06;;;;;;;13.30;9.90;;;5.20;86.10;;;;;;5091314;28;20401;-73
2022/04/04 06:26:31;;;;;;;11.38;9.13;;;5.20;86.70;;;;;;5092430;28;20020;-74
2022/04/04 06:28:57;;;;;;;12.45;9.68;;;5.40;86.40;;;;;;5089524;28;20039;-73
2022/04/04 06:31:23;;;;;;;12.88;10.35;;;5.40;86.60;;;;;;5089412;28;20028;-74
2022/04/04 06:33:49;;;;;;;13.30;9.43;;;5.40;86.00;;;;;;5089520;28;20107;-73
2022/04/04 06:36:15;;;;;;;15.35;9.38;;;5.50;85.40;;;;;;5089878;28;20408;-73
2022/04/04 06:38:41;;;;;;;14.75;9.50;;;5.60;85.20;;;;;;5074502;28;20036;-73
2022/04/04 06:41:06;;;;;;;13.55;9.07;;;5.60;85.50;;;;;;5090686;28;20020;-76
2022/04/04 06:43:32;;;;;;;12.38;8.90;;;5.80;84.80;;;;;;5071068;28;20472;-72
2022/04/04 06:45:59;;;;;;;13.02;9.45;;;5.90;84.00;;;;;;5089121;28;20028;-71
2022/04/04 06:48:25;;;;;;;15.25;9.55;;;6.00;83.80;;;;;;5087423;28;20029;-71
2022/04/04 06:50:51;;;;;;;11.52;8.90;;;6.00;83.40;;;;;;5090472;28;20031;-77
2022/04/04 06:53:21;;;;;;;12.82;8.95;;;6.10;83.10;;;;;;5090073;28;20126;-78
2022/04/04 06:55:47;;;;;;;13.20;9.70;;;6.20;82.70;;;;;;5082932;28;20059;-78
2022/04/04 06:58:13;;;;;;;14.63;9.40;;;6.30;82.50;;;;;;5083415;28;20033;-79
2022/04/04 07:00:41;;;;;;;13.65;9.65;;;6.40;82.30;;;;;;5075458;28;20024;-78
2022/04/04 07:03:08;;;;;;;15.45;9.88;;;6.40;81.70;;;;;;5072843;28;20025;-77
2022/04/04 07:05:34;;;;;;;16.92;9.07;;;6.40;82.10;;;;;;5076490;28;20028;-80
2022/04/04 07:08:00;;;;;;;14.70;9.55;;;6.50;82.00;;;;;;5079851;28;20032;-82
2022/04/04 07:10:27;;;;;;;13.68;9.95;;;6.60;81.90;;;;;;5081655;28;20071;-78
2022/04/04 07:12:52;;;;;;;13.90;9.90;;;6.60;81.90;;;;;;5076067;28;20042;-78
2022/04/04 07:15:18;;;;;;;13.50;10.40;;;6.80;81.50;;;;;;5072352;28;20028;-76
2022/04/04 07:17:45;;;;;;;14.10;9.75;;;6.80;81.20;;;;;;5075179;28;20500;-75
2022/04/04 07:20:13;;;;;;;14.27;10.50;;;6.90;81.20;;;;;;5075721;28;20024;-76
2022/04/04 07:22:41;;;;;;;15.73;10.02;;;6.90;79.90;;;;;;5075978;28;20064;-77
2022/04/04 07:25:09;;;;;;;15.65;11.07;;;7.00;80.40;;;;;;5075410;28;20113;-75
2022/04/04 07:27:36;;;;;;;12.68;9.50;;;7.10;80.10;;;;;;5074931;28;20031;-76
2022/04/04 07:30:03;;;;;;;13.20;9.35;;;7.10;78.90;;;;;;5072715;28;20036;-75
2022/04/04 07:32:29;;;;;;;11.23;9.05;;;7.30;79.30;;;;;;5076496;28;20012;-75
2022/04/04 07:34:54;;;;;;;12.35;9.73;;;7.20;78.20;;;;;;5080131;28;20058;-77
2022/04/04 07:37:20;;;;;;;12.10;9.38;;;7.30;79.10;;;;;;5081445;28;20085;-78
2022/04/04 07:39:46;;;;;;;15.30;9.70;;;7.40;78.80;;;;;;5082477;28;20040;-74
2022/04/04 07:42:13;;;;;;;13.35;9.43;;;7.50;78.60;;;;;;5071573;28;20028;-75
2022/04/04 07:44:39;;;;;;;13.65;10.02;;;7.60;78.80;;;;;;5075274;28;20401;-77
2022/04/04 07:47:05;;;;;;;14.85;10.73;;;7.70;77.50;;;;;;5077112;28;20147;-76
2022/04/04 07:49:31;;;;;;;12.02;9.73;;;7.70;77.70;;;;;;5079081;28;20021;-77
2022/04/04 07:51:57;;;;;;;14.27;10.68;;;7.70;77.90;;;;;;5074341;28;20055;-76
2022/04/04 07:54:22;;;;;;;13.70;10.35;;;7.70;77.20;;;;;;5072234;28;20028;-74
2022/04/04 07:56:48;;;;;;;13.82;9.55;;;7.70;77.00;;;;;;5073592;28;20033;-76
2022/04/04 07:59:14;;;;;;;15.43;10.00;;;7.90;76.60;;;;;;5075946;28;20055;-77
2022/04/04 08:01:39;;;;;;;12.20;9.15;;;8.10;77.00;;;;;;5075748;28;20498;-76
2022/04/04 08:04:05;;;;;;;11.23;8.50;;;8.10;76.10;;;;;;5075610;28;20035;-74
2022/04/04 08:06:31;;;;;;;11.60;8.70;;;8.20;75.40;;;;;;5073346;28;20025;-77
2022/04/04 08:08:57;;;;;;;12.27;9.18;;;8.20;75.30;;;;;;5073100;28;20028;-76
2022/04/04 08:11:22;;;;;;;12.55;9.02;;;8.40;75.70;;;;;;5075631;28;20376;-77
2022/04/04 08:13:48;;;;;;;12.45;9.10;;;8.40;74.50;;;;;;5075225;28;20032;-77
2022/04/04 08:16:14;;;;;;;12.25;9.30;;;8.50;74.10;;;;;;5075462;28;20481;-76
2022/04/04 08:18:39;;;;;;;12.55;9.05;;;8.60;73.60;;;;;;5072326;28;20111;-75
2022/04/04 08:21:05;;;;;;;12.20;8.85;;;8.70;72.40;;;;;;5087065;28;20493;-75
2022/04/04 08:23:31;;;;;;;13.77;9.45;;;8.70;72.70;;;;;;5056633;28;20417;-76
2022/04/04 08:25:58;;;;;;;13.35;9.38;;;8.80;72.40;;;;;;5075071;28;20484;-76
2022/04/04 08:28:25;;;;;;;13.48;8.85;;;8.90;72.00;;;;;;5075926;28;20020;-76
2022/04/04 08:30:52;;;;;;;13.63;9.05;;;8.90;71.50;;;;;;5074103;28;20040;-75
2022/04/04 08:33:18;;;;;;;12.77;9.05;;;9.00;71.70;;;;;;5075020;28;20063;-76
2022/04/04 08:35:45;;;;;;;12.10;9.98;;;9.00;71.70;;;;;;5089515;28;20051;-76
2022/04/04 08:38:12;;;;;;;12.93;9.75;;;9.10;71.60;;;;;;5089119;28;20047;-77
2022/04/04 08:40:38;;;;;;;15.57;10.75;;;9.20;71.60;;;;;;5083123;28;20020;-76
2022/04/04 08:43:10;;;;;;;19.45;13.85;;;9.20;70.90;;;;;;5078198;28;20039;-76
2022/04/04 08:45:39;;;;;;;22.02;15.27;;;9.30;70.70;;;;;;5076980;28;20048;-76
2022/04/04 08:48:06;;;;;;;12.75;9.82;;;9.40;71.10;;;;;;5074717;28;20032;-76
2022/04/04 08:50:32;;;;;;;13.80;9.57;;;9.50;70.20;;;;;;5078382;28;20020;-76
2022/04/04 08:53:00;;;;;;;12.93;9.90;;;9.50;70.50;;;;;;5077480;28;20119;-76
2022/04/04 08:55:26;;;;;;;14.57;10.23;;;9.70;71.10;;;;;;5065482;28;20028;-76
2022/04/04 08:57:52;;;;;;;18.33;10.82;;;9.80;70.80;;;;;;5090931;28;20036;-75
2022/04/04 09:00:18;;;;;;;14.07;9.55;;;9.80;70.80;;;;;;5091838;28;20029;-75
2022/04/04 09:03:02;;;;;;;11.80;9.48;;;10.00;70.70;;;;;;5092582;28;20020;-76
2022/04/04 09:05:29;;;;;;;11.70;9.17;;;10.10;69.70;;;;;;5091562;28;20266;-75
2022/04/04 09:08:00;;;;;;;13.73;10.07;;;10.20;68.50;;;;;;5088076;28;20274;-75
2022/04/04 09:10:36;;;;;;;12.98;9.48;;;10.40;69.60;;;;;;5089130;28;20028;-75
2022/04/04 09:13:09;;;;;;;12.18;9.35;;;10.50;68.00;;;;;;5069558;28;20032;-75
2022/04/04 09:15:57;;;;;;;14.48;8.90;;;10.50;68.50;;;;;;5088363;28;20112;-74
2022/04/04 09:18:45;;;;;;;11.85;9.35;;;10.60;66.50;;;;;;5075487;28;20028;-75
2022/04/04 09:21:12;;;;;;;12.55;8.45;;;10.80;67.00;;;;;;5074728;28;20103;-75
2022/04/04 09:23:45;;;;;;;14.05;9.30;;;10.90;66.80;;;;;;5089492;28;20035;-74
2022/04/04 09:26:29;;;;;;;13.05;8.85;;;11.00;67.20;;;;;;5087358;28;20646;-74
2022/04/04 09:28:56;;;;;;;11.80;9.43;;;11.20;66.60;;;;;;5087118;28;20032;-74
2022/04/04 09:31:23;;;;;;;12.27;9.23;;;11.40;65.80;;;;;;5085423;28;20485;-75
2022/04/04 09:33:50;;;;;;;13.32;9.50;;;11.30;65.70;;;;;;5075792;28;20028;-75
2022/04/04 09:36:16;;;;;;;11.68;9.25;;;11.40;66.20;;;;;;5089814;28;20025;-75
2022/04/04 09:39:04;;;;;;;10.85;9.07;;;11.40;66.40;;;;;;5077767;28;20017;-75
2022/04/04 09:41:30;;;;;;;12.20;9.27;;;11.60;66.20;;;;;;5076726;28;20020;-74
2022/04/04 09:44:05;;;;;;;13.70;9.18;;;11.70;65.20;;;;;;5083151;28;20052;-74
2022/04/04 09:46:35;;;;;;;11.45;9.20;;;11.70;65.70;;;;;;5082658;28;20028;-73
2022/04/04 09:49:17;;;;;;;10.90;8.20;;;11.70;65.80;;;;;;5076126;28;20021;-73
2022/04/04 09:51:50;;;;;;;11.43;9.00;;;11.70;65.30;;;;;;5087986;28;20564;-73
2022/04/04 09:54:17;;;;;;;11.40;8.60;;;11.80;66.20;;;;;;5072849;28;20039;-75
2022/04/04 09:56:44;;;;;;;10.98;8.60;;;11.90;66.30;;;;;;5075905;28;20029;-74
2022/04/04 09:59:12;;;;;;;11.02;8.77;;;12.00;64.90;;;;;;5087903;28;20016;-76
2022/04/04 10:01:39;;;;;;;10.30;7.88;;;12.10;64.20;;;;;;5081856;28;20118;-75
2022/04/04 10:04:07;;;;;;;10.98;8.30;;;12.10;63.70;;;;;;5084912;28;20103;-75
2022/04/04 10:06:34;;;;;;;12.23;8.50;;;12.20;64.20;;;;;;5082371;28;20392;-74
2022/04/04 10:09:01;;;;;;;11.55;8.55;;;12.40;64.20;;;;;;5089171;28;20024;-76
2022/04/04 10:11:30;;;;;;;11.95;8.57;;;12.40;64.40;;;;;;5090265;28;20488;-74
2022/04/04 10:13:56;;;;;;;11.80;8.43;;;12.30;63.50;;;;;;5086773;28;20036;-74
2022/04/04 10:16:24;;;;;;;12.80;8.90;;;12.40;63.80;;;;;;5087137;28;20044;-76
2022/04/04 10:18:51;;;;;;;11.50;8.23;;;12.40;63.30;;;;;;5086632;28;20500;-75
2022/04/04 10:21:18;;;;;;;10.93;8.07;;;12.50;64.80;;;;;;5083184;28;20036;-73
2022/04/04 10:23:46;;;;;;;10.63;7.78;;;12.60;63.40;;;;;;5082535;28;20063;-75
2022/04/04 10:26:15;;;;;;;11.65;7.75;;;12.60;62.70;;;;;;5083024;28;20081;-79
2022/04/04 10:28:44;;;;;;;11.20;9.07;;;12.60;63.50;;;;;;5081381;28;20512;-78
2022/04/04 10:31:16;;;;;;;11.88;8.18;;;12.50;63.30;;;;;;5060878;28;20365;-81
2022/04/04 10:33:43;;;;;;;10.15;7.15;;;12.70;62.10;;;;;;5088227;28;20103;-78
2022/04/04 10:36:18;;;;;;;10.70;7.55;;;12.90;63.40;;;;;;5082055;28;20405;-73
2022/04/04 10:38:50;;;;;;;10.32;7.28;;;12.90;62.90;;;;;;5081482;28;20046;-77
2022/04/04 10:41:26;;;;;;;10.45;7.65;;;12.90;62.70;;;;;;5083255;28;20467;-77
2022/04/04 10:43:53;;;;;;;10.82;8.30;;;13.10;61.70;;;;;;5080954;28;20115;-75
2022/04/04 10:46:21;;;;;;;9.93;7.85;;;13.20;62.50;;;;;;5079800;28;20583;-78
2022/04/04 10:48:51;;;;;;;13.18;9.73;;;13.20;62.70;;;;;;5084913;28;20043;-79
2022/04/04 10:51:37;;;;;;;11.25;8.80;;;13.20;62.80;;;;;;5081496;28;20073;-77
2022/04/04 10:54:08;;;;;;;9.95;7.70;;;13.20;61.40;;;;;;5067750;28;20389;-78
2022/04/04 10:56:47;;;;;;;11.65;8.38;;;13.20;63.10;;;;;;5112018;27;20028;-79
2022/04/04 10:59:15;;;;;;;10.38;7.50;;;13.30;62.00;;;;;;5087103;28;20027;-77
2022/04/04 11:01:45;;;;;;;9.73;7.07;;;13.30;63.20;;;;;;5086105;28;20123;-78
2022/04/04 11:04:27;;;;;;;10.43;7.47;;;13.30;62.00;;;;;;5085970;28;20066;-78
2022/04/04 11:10:05;;;;;;;12.68;8.23;;;13.30;62.10;;;;;;5080217;28;20087;-78
2022/04/04 11:13:02;;;;;;;9.25;7.15;;;13.40;60.50;;;;;;5078386;28;20400;-78
2022/04/04 11:15:55;;;;;;;10.95;8.43;;;13.50;62.00;;;;;;5076858;28;20088;-77
2022/04/04 11:18:32;;;;;;;11.02;7.55;;;13.70;61.80;;;;;;5070754;28;20040;-77
2022/04/04 11:21:02;;;;;;;12.10;7.93;;;13.70;62.00;;;;;;5089138;28;20492;-78
2022/04/04 11:23:34;;;;;;;10.27;7.07;;;13.70;61.70;;;;;;5089037;28;20024;-78
2022/04/04 11:26:01;;;;;;;10.98;6.57;;;13.70;61.50;;;;;;5087385;28;20562;-79
2022/04/04 11:28:32;;;;;;;9.10;6.88;;;13.70;60.00;;;;;;5088426;28;20020;-78
2022/04/04 11:31:12;;;;;;;9.35;6.60;;;13.90;60.50;;;;;;5089217;28;20042;-79
2022/04/04 11:33:54;;;;;;;10.15;7.10;;;13.90;60.50;;;;;;5087972;28;20024;-79
2022/04/04 11:36:27;;;;;;;8.75;7.07;;;13.90;60.10;;;;;;5073550;28;20408;-78
2022/04/04 11:38:57;;;;;;;9.15;6.85;;;14.00;62.60;;;;;;5090952;28;20107;-79
2022/04/04 11:41:24;;;;;;;9.40;7.22;;;14.10;60.20;;;;;;5088371;28;20503;-79
2022/04/04 11:43:52;;;;;;;10.18;7.13;;;14.10;58.90;;;;;;5087785;28;20448;-79
2022/04/04 11:46:19;;;;;;;8.02;6.50;;;14.10;59.90;;;;;;5087161;28;20024;-77
2022/04/04 11:48:51;;;;;;;9.68;6.68;;;14.30;60.80;;;;;;5088392;28;20038;-78
2022/04/04 11:51:19;;;;;;;8.18;6.28;;;14.30;59.60;;;;;;5071014;28;20036;-78
2022/04/04 11:53:44;;;;;;;10.10;6.15;;;14.50;61.70;;;;;;5090989;28;20503;-78
2022/04/04 11:56:20;;;;;;;13.18;6.45;;;14.50;58.00;;;;;;5086540;28;20238;-76
2022/04/04 11:58:48;;;;;;;8.18;6.32;;;14.50;60.60;;;;;;5087354;28;20056;-78
2022/04/04 12:01:14;;;;;;;8.02;6.22;;;14.50;57.90;;;;;;5087381;28;20059;-76
2022/04/04 12:03:43;;;;;;;9.32;6.40;;;14.60;58.90;;;;;;5087795;28;20457;-77
2022/04/04 12:06:09;;;;;;;9.27;6.20;;;14.60;58.80;;;;;;5087802;28;20036;-77
2022/04/04 12:08:36;;;;;;;7.90;5.55;;;14.60;61.00;;;;;;5090165;28;20377;-78
2022/04/04 12:11:03;;;;;;;7.13;5.35;;;14.70;62.40;;;;;;5087375;28;20069;-77
2022/04/04 12:13:29;;;;;;;8.30;6.28;;;14.80;60.50;;;;;;5087112;28;20463;-77
2022/04/04 12:15:55;;;;;;;7.47;5.45;;;14.80;61.80;;;;;;5085954;28;20073;-77
2022/04/04 12:18:25;;;;;;;6.63;5.28;;;14.80;61.40;;;;;;5087051;28;20075;-78
2022/04/04 12:20:55;;;;;;;8.23;6.35;;;14.80;58.30;;;;;;5089252;28;20028;-76
2022/04/04 12:26:11;;;;;;;9.07;5.90;;;14.90;60.10;;;;;;5086544;28;20070;-77
2022/04/04 12:28:39;;;;;;;7.65;5.22;;;14.90;60.30;;;;;;5087013;28;20119;-78
2022/04/04 12:31:23;;;;;;;8.18;5.13;;;14.70;59.30;;;;;;5087092;28;20024;-79
2022/04/04 12:33:53;;;;;;;;;;;14.90;60.60;;;;;;5087983;28;20023;-79
2022/04/04 12:36:29;;;;;;;9.27;4.72;;;14.90;58.70;;;;;;5085688;28;19908;-78
2022/04/04 12:38:58;;;;;;;8.00;5.00;;;15.10;58.80;;;;;;5089468;28;20039;-78
2022/04/04 12:41:25;;;;;;;7.88;4.60;;;15.30;58.00;;;;;;5087401;28;20523;-78
2022/04/04 12:44:03;;;;;;;6.13;3.72;;;15.20;57.40;;;;;;5087158;28;20060;-77
2022/04/04 12:46:33;;;;;;;6.88;4.75;;;15.10;60.00;;;;;;5102627;28;20082;-78
2022/04/04 12:49:12;;;;;;;7.03;4.68;;;15.20;58.60;;;;;;5087088;28;20018;-78
2022/04/04 12:51:39;;;;;;;7.05;5.10;;;15.40;58.90;;;;;;5087239;28;20427;-79
2022/04/04 12:54:05;;;;;;;7.10;5.20;;;15.40;56.80;;;;;;5089157;28;20144;-79
2022/04/04 12:56:47;;;;;;;7.68;5.28;;;15.70;58.70;;;;;;5071283;28;20047;-78
2022/04/04 12:59:13;;;;;;;8.07;5.72;;;15.70;58.60;;;;;;5089307;28;20036;-79